Time,TemperatureF,DewpointF,PressureIn,WindDirection,WindDirectionDegrees,WindSpeedMPH,WindSpeedGustMPH,Humidity,HourlyPrecipIn,Conditions,Clouds,dailyrainin,SoftwareType,DateUTC
2013-11-17 00:12:00,43.0,39.0,29.84,SSE,149,4.0,8.0,85,0.00,,,0.00,,2013-11-17 08:12:00,
2013-11-17 00:21:00,42.0,38.0,29.84,South,184,4.0,7.0,87,0.00,,,0.00,,2013-11-17 08:21:00,
2013-11-17 00:52:00,42.0,39.0,29.85,SSE,153,2.0,5.0,88,0.00,,,0.00,,2013-11-17 08:52:00,
2013-11-17 01:11:00,42.0,38.0,29.85,SSE,154,2.0,7.0,87,0.00,,,0.00,,2013-11-17 09:11:00,
2013-11-17 01:21:00,42.0,38.0,29.85,SSE,162,2.0,7.0,87,0.00,,,0.00,,2013-11-17 09:21:00,
2013-11-17 01:43:00,42.0,38.0,29.86,SE,126,1.0,7.0,87,0.00,,,0.00,,2013-11-17 09:43:00,
2013-11-17 01:53:00,42.0,38.0,29.86,SE,146,1.0,0.0,87,0.00,,,0.00,,2013-11-17 09:53:00,
2013-11-17 02:13:00,43.0,39.0,29.87,SSE,148,1.0,6.0,87,0.00,,,0.00,,2013-11-17 10:13:00,
2013-11-17 02:23:00,43.0,39.0,29.87,SE,124,0.0,1.0,87,0.00,,,0.00,,2013-11-17 10:23:00,
2013-11-17 02:42:00,43.0,39.0,29.88,SE,144,2.0,8.0,87,0.00,,,0.00,,2013-11-17 10:42:00,
2013-11-17 02:53:00,43.0,40.0,29.88,South,179,2.0,8.0,88,0.00,,,0.00,,2013-11-17 10:53:00,
2013-11-17 03:12:00,43.0,40.0,29.88,SE,127,2.0,6.0,88,0.00,,,0.00,,2013-11-17 11:12:00,
2013-11-17 03:22:00,43.0,40.0,29.88,South,181,4.0,9.0,88,0.00,,,0.00,,2013-11-17 11:22:00,
2013-11-17 03:42:00,42.0,39.0,29.88,South,186,5.0,9.0,88,0.00,,,0.00,,2013-11-17 11:42:00,
2013-11-17 03:52:00,42.0,39.0,29.88,South,174,3.0,9.0,89,0.00,,,0.00,,2013-11-17 11:52:00,
2013-11-17 04:21:00,42.0,39.0,29.88,South,174,1.0,4.0,90,0.00,,,0.00,,2013-11-17 12:21:00,
2013-11-17 04:42:00,42.0,39.0,29.88,SE,134,2.0,7.0,90,0.00,,,0.00,,2013-11-17 12:42:00,
2013-11-17 04:52:00,43.0,40.0,29.88,South,176,4.0,9.0,88,0.00,,,0.00,,2013-11-17 12:52:00,
2013-11-17 05:21:00,43.0,40.0,29.88,SW,217,1.0,5.0,88,0.00,,,0.00,,2013-11-17 13:21:00,
2013-11-17 05:42:00,43.0,40.0,29.88,SE,144,1.0,5.0,88,0.00,,,0.00,,2013-11-17 13:42:00,
2013-11-17 05:52:00,43.0,40.0,29.88,SE,132,1.0,7.0,89,0.00,,,0.00,,2013-11-17 13:52:00,
2013-11-17 06:21:00,43.0,40.0,29.88,SSW,197,3.0,7.0,90,0.00,,,0.00,,2013-11-17 14:21:00,
2013-11-17 06:42:00,43.0,40.0,29.88,SE,139,3.0,7.0,90,0.00,,,0.00,,2013-11-17 14:42:00,
2013-11-17 06:52:00,43.0,40.0,29.89,SE,127,2.0,6.0,90,0.00,,,0.00,,2013-11-17 14:52:00,
2013-11-17 07:11:00,43.0,40.0,29.89,SE,136,1.0,4.0,90,0.00,,,0.00,,2013-11-17 15:11:00,
2013-11-17 07:22:00,44.0,42.0,29.89,SW,221,2.0,5.0,91,0.00,,,0.00,,2013-11-17 15:22:00,
2013-11-17 07:43:00,44.0,42.0,29.90,SSE,153,2.0,5.0,91,0.00,,,0.00,,2013-11-17 15:43:00,
2013-11-17 07:54:00,44.0,41.0,29.90,South,177,2.0,6.0,90,0.00,,,0.00,,2013-11-17 15:54:00,
2013-11-17 08:12:00,44.0,41.0,29.90,SSE,159,1.0,6.0,90,0.00,,,0.00,,2013-11-17 16:12:00,
2013-11-17 08:23:00,45.0,42.0,29.90,SSE,154,2.0,8.0,89,0.00,,,0.00,,2013-11-17 16:23:00,
2013-11-17 08:42:00,45.0,42.0,29.90,SSE,152,2.0,6.0,88,0.00,,,0.00,,2013-11-17 16:42:00,
2013-11-17 08:53:00,45.0,42.0,29.91,SE,142,2.0,6.0,88,0.00,,,0.00,,2013-11-17 16:53:00,
2013-11-17 09:12:00,46.0,42.0,29.91,SSE,159,3.0,7.0,85,0.00,,,0.00,,2013-11-17 17:12:00,
2013-11-17 09:22:00,46.0,42.0,29.91,SSW,207,5.0,11.0,86,0.00,,,0.00,,2013-11-17 17:22:00,
2013-11-17 09:43:00,46.0,42.0,29.92,SW,226,5.0,11.0,87,0.00,,,0.00,,2013-11-17 17:43:00,
2013-11-17 09:52:00,45.0,42.0,29.92,SSE,159,4.0,11.0,90,0.13,,,0.02,,2013-11-17 17:52:00,
2013-11-17 10:12:00,45.0,42.0,29.92,SSE,159,4.0,10.0,90,0.00,,,0.03,,2013-11-17 18:12:00,
2013-11-17 10:23:00,45.0,43.0,29.92,SE,141,2.0,10.0,91,0.00,,,0.03,,2013-11-17 18:23:00,
2013-11-17 10:42:00,46.0,44.0,29.93,SSW,213,5.0,14.0,92,0.00,,,0.03,,2013-11-17 18:42:00,
2013-11-17 10:52:00,46.0,44.0,29.93,SSE,162,7.0,17.0,91,0.00,,,0.03,,2013-11-17 18:52:00,
2013-11-17 11:11:00,46.0,44.0,29.93,SSE,160,7.0,17.0,92,0.00,,,0.04,,2013-11-17 19:11:00,
2013-11-17 11:21:00,46.0,44.0,29.93,SW,231,6.0,14.0,94,0.04,,,0.05,,2013-11-17 19:21:00,
2013-11-17 11:42:00,46.0,45.0,29.93,SSE,153,3.0,11.0,95,0.07,,,0.07,,2013-11-17 19:42:00,
2013-11-17 11:52:00,45.0,44.0,29.93,South,179,2.0,6.0,96,0.05,,,0.07,,2013-11-17 19:52:00,
2013-11-17 12:12:00,46.0,45.0,29.93,SSE,150,3.0,5.0,96,0.00,,,0.08,,2013-11-17 20:12:00,
2013-11-17 12:22:00,46.0,45.0,29.92,SSW,208,2.0,4.0,96,0.00,,,0.09,,2013-11-17 20:22:00,
2013-11-17 12:42:00,46.0,45.0,29.92,ESE,123,2.0,5.0,96,0.08,,,0.11,,2013-11-17 20:42:00,
2013-11-17 12:52:00,46.0,45.0,29.92,West,260,4.0,9.0,96,0.00,,,0.11,,2013-11-17 20:52:00,
2013-11-17 13:12:00,47.0,46.0,29.92,SW,225,5.0,12.0,96,0.00,,,0.11,,2013-11-17 21:12:00,
2013-11-17 13:22:00,47.0,46.0,29.92,SSW,207,8.0,12.0,96,0.00,,,0.11,,2013-11-17 21:22:00,
2013-11-17 13:44:00,48.0,46.0,29.92,SSW,207,10.0,16.0,94,0.00,,,0.11,,2013-11-17 21:44:00,
2013-11-17 13:55:00,48.0,46.0,29.92,SW,214,10.0,16.0,94,0.00,,,0.11,,2013-11-17 21:55:00,
2013-11-17 14:13:00,48.0,46.0,29.92,SSW,210,9.0,18.0,93,0.00,,,0.11,,2013-11-17 22:13:00,
2013-11-17 14:24:00,48.0,46.0,29.91,SW,219,10.0,19.0,92,0.00,,,0.11,,2013-11-17 22:24:00,
2013-11-17 14:43:00,48.0,46.0,29.92,SW,233,10.0,19.0,92,0.00,,,0.11,,2013-11-17 22:43:00,
2013-11-17 14:53:00,48.0,46.0,29.92,SSW,193,10.0,16.0,92,0.00,,,0.11,,2013-11-17 22:53:00,
2013-11-17 15:23:00,48.0,46.0,29.92,SSE,159,9.0,20.0,92,0.00,,,0.11,,2013-11-17 23:23:00,
2013-11-17 15:42:00,48.0,46.0,29.93,South,173,10.0,20.0,92,0.00,,,0.11,,2013-11-17 23:42:00,
2013-11-17 15:52:00,48.0,46.0,29.93,South,179,9.0,17.0,94,0.00,,,0.11,,2013-11-17 23:52:00,
2013-11-17 16:11:00,48.0,46.0,29.93,WSW,250,7.0,17.0,93,0.00,,,0.11,,2013-11-18 00:11:00,
2013-11-17 16:21:00,47.0,46.0,29.93,SSW,208,9.0,25.0,95,0.00,,,0.11,,2013-11-18 00:21:00,
2013-11-17 16:42:00,47.0,46.0,29.93,SW,219,7.0,13.0,95,0.00,,,0.11,,2013-11-18 00:42:00,
2013-11-17 16:52:00,47.0,46.0,29.94,SW,215,7.0,13.0,96,0.00,,,0.12,,2013-11-18 00:52:00,
2013-11-17 17:22:00,47.0,46.0,29.94,SSW,194,7.0,10.0,97,0.11,,,0.14,,2013-11-18 01:22:00,
2013-11-17 17:42:00,46.0,45.0,29.94,SW,225,5.0,11.0,97,0.07,,,0.14,,2013-11-18 01:42:00,
2013-11-17 17:52:00,46.0,45.0,29.95,SSW,194,3.0,7.0,97,0.00,,,0.16,,2013-11-18 01:52:00,
2013-11-17 18:21:00,47.0,46.0,29.95,SSW,204,3.0,9.0,97,0.00,,,0.16,,2013-11-18 02:21:00,
2013-11-17 18:42:00,46.0,45.0,29.95,SW,219,4.0,9.0,98,0.00,,,0.16,,2013-11-18 02:42:00,
2013-11-17 18:52:00,46.0,45.0,29.96,SW,219,5.0,11.0,98,0.00,,,0.18,,2013-11-18 02:52:00,
2013-11-17 19:22:00,46.0,45.0,29.95,South,186,6.0,12.0,97,0.00,,,0.18,,2013-11-18 03:22:00,
2013-11-17 19:43:00,46.0,45.0,29.95,SSW,198,8.0,12.0,97,0.00,,,0.18,,2013-11-18 03:43:00,
2013-11-17 19:54:00,46.0,45.0,29.95,South,177,8.0,13.0,96,0.00,,,0.18,,2013-11-18 03:54:00,
2013-11-17 20:12:00,46.0,45.0,29.95,SSW,207,6.0,13.0,95,0.00,,,0.18,,2013-11-18 04:12:00,
2013-11-17 20:23:00,46.0,45.0,29.95,WSW,256,7.0,15.0,95,0.00,,,0.18,,2013-11-18 04:23:00,
2013-11-17 20:42:00,46.0,45.0,29.96,SW,221,7.0,9.0,95,0.00,,,0.18,,2013-11-18 04:42:00,
2013-11-17 20:52:00,46.0,45.0,29.96,SW,235,6.0,10.0,96,0.00,,,0.18,,2013-11-18 04:52:00,
2013-11-17 21:22:00,46.0,45.0,29.97,SSW,204,6.0,11.0,97,0.00,,,0.19,,2013-11-18 05:22:00,
2013-11-17 21:42:00,46.0,45.0,29.97,West,267,5.0,11.0,97,0.06,,,0.20,,2013-11-18 05:42:00,
2013-11-17 21:53:00,46.0,45.0,29.96,SW,221,5.0,10.0,97,0.00,,,0.20,,2013-11-18 05:53:00,
2013-11-17 22:12:00,46.0,45.0,29.97,West,260,5.0,10.0,97,0.00,,,0.20,,2013-11-18 06:12:00,
2013-11-17 22:22:00,46.0,45.0,29.97,SSW,210,4.0,7.0,97,0.00,,,0.20,,2013-11-18 06:22:00,
2013-11-17 22:42:00,46.0,45.0,29.97,South,177,3.0,6.0,97,0.00,,,0.20,,2013-11-18 06:42:00,
2013-11-17 22:52:00,46.0,45.0,29.97,SSE,160,2.0,5.0,97,0.00,,,0.20,,2013-11-18 06:52:00,
2013-11-17 23:21:00,46.0,45.0,29.98,SE,146,1.0,3.0,97,0.00,,,0.20,,2013-11-18 07:21:00,
2013-11-17 23:42:00,46.0,45.0,29.98,SSW,196,1.0,4.0,97,0.00,,,0.20,,2013-11-18 07:42:00,
2013-11-17 23:52:00,46.0,45.0,29.97,South,176,1.0,4.0,97,0.00,,,0.20,,2013-11-18 07:52:00,